createdAt,value
2023-01-10T00:00:00.825Z,65.98
2023-01-10T00:02:28.415Z,66.26
2023-01-10T00:04:56.321Z,66.21
2023-01-10T00:07:23.880Z,66.84
2023-01-10T00:09:51.655Z,67.05
2023-01-10T00:12:37.926Z,66.45
2023-01-10T00:15:06.556Z,66.01
2023-01-10T00:17:34.174Z,66.00
2023-01-10T00:20:01.971Z,66.38
2023-01-10T00:22:29.496Z,66.22
2023-01-10T00:24:57.297Z,65.89
2023-01-10T00:27:25.202Z,66.12
2023-01-10T00:29:53.049Z,66.33
2023-01-10T00:32:21.562Z,65.77
2023-01-10T00:34:49.553Z,65.74
2023-01-10T00:37:17.081Z,66.66
2023-01-10T00:39:44.927Z,65.75
2023-01-10T00:42:31.090Z,65.32
2023-01-10T00:44:58.992Z,65.67
2023-01-10T00:47:26.575Z,65.45
2023-01-10T00:49:54.521Z,65.74
2023-01-10T00:52:22.064Z,65.46
2023-01-10T00:54:49.970Z,65.05
2023-01-10T00:57:17.550Z,65.76
2023-01-10T00:59:45.601Z,65.71
2023-01-10T01:02:13.206Z,65.81
2023-01-10T01:04:41.424Z,65.50
2023-01-10T01:07:11.203Z,65.75
2023-01-10T01:09:59.061Z,65.82
2023-01-10T01:12:26.735Z,65.92
2023-01-10T01:14:54.604Z,66.26
2023-01-10T01:17:22.127Z,66.08
2023-01-10T01:19:49.958Z,66.86
2023-01-10T01:22:17.449Z,67.18
2023-01-10T01:24:45.437Z,67.53
2023-01-10T01:27:12.989Z,67.81
2023-01-10T01:29:43.308Z,67.95
2023-01-10T01:32:11.232Z,67.54
2023-01-10T01:34:39.377Z,67.70
2023-01-10T01:37:07.096Z,68.03
2023-01-10T01:39:34.918Z,67.79
2023-01-10T01:42:02.666Z,67.57
2023-01-10T01:44:35.741Z,67.89
2023-01-10T01:47:08.118Z,68.12
2023-01-10T01:49:41.127Z,67.97
2023-01-10T01:52:23.281Z,68.21
2023-01-10T01:54:55.329Z,68.19
2023-01-10T01:57:28.057Z,68.65
2023-01-10T01:59:56.605Z,68.60
2023-01-10T02:02:31.909Z,69.20
2023-01-10T02:05:05.797Z,69.78
2023-01-10T02:07:37.963Z,69.91
2023-01-10T02:10:23.270Z,70.49
2023-01-10T02:12:54.835Z,70.49
2023-01-10T02:15:22.829Z,69.99
2023-01-10T02:17:52.555Z,69.90
2023-01-10T02:20:22.789Z,69.84
2023-01-10T02:23:32.408Z,69.57
2023-01-10T02:26:24.858Z,69.57
2023-01-10T02:29:03.961Z,69.44
2023-01-10T02:31:59.174Z,69.37
2023-01-10T02:34:49.802Z,69.34
2023-01-10T02:37:45.475Z,69.59
2023-01-10T02:40:52.171Z,69.97
2023-01-10T02:43:50.477Z,70.10
2023-01-10T02:46:25.610Z,70.19
2023-01-10T02:48:55.059Z,70.58
2023-01-10T02:51:29.194Z,71.26
2023-01-10T02:54:08.149Z,71.86
2023-01-10T02:56:47.562Z,72.43
2023-01-10T02:59:56.176Z,73.48
2023-01-10T03:03:09.010Z,75.69
2023-01-10T03:06:07.924Z,78.82
2023-01-10T03:08:38.756Z,80.94
2023-01-10T03:11:10.156Z,82.75
2023-01-10T03:13:57.480Z,85.55
2023-01-10T03:16:29.468Z,89.02
2023-01-10T03:19:02.418Z,94.04
2023-01-10T03:21:32.723Z,95.46
2023-01-10T03:24:17.651Z,96.90
2023-01-10T03:27:09.218Z,97.08
2023-01-10T03:30:04.138Z,98.58
2023-01-10T03:32:33.158Z,98.60
2023-01-10T03:35:03.228Z,98.29
2023-01-10T03:37:49.634Z,98.77
2023-01-10T03:40:55.057Z,98.74
2023-01-10T03:44:37.717Z,98.61
2023-01-10T03:47:32.670Z,99.73
2023-01-10T03:50:35.561Z,98.87
2023-01-10T03:53:03.316Z,98.61
2023-01-10T03:55:32.797Z,98.92
2023-01-10T03:58:00.275Z,97.39
2023-01-10T04:00:28.201Z,95.93
2023-01-10T04:02:57.701Z,96.57
2023-01-10T04:05:26.625Z,97.40
2023-01-10T04:07:54.149Z,97.12
2023-01-10T04:10:23.442Z,96.43
2023-01-10T04:12:52.977Z,97.12
2023-01-10T04:15:20.882Z,97.06
2023-01-10T04:17:49.216Z,98.29
2023-01-10T04:20:17.334Z,98.74
2023-01-10T04:22:46.366Z,100.00
2023-01-10T04:25:14.320Z,100.00
2023-01-10T04:27:42.086Z,100.00
2023-01-10T04:30:10.719Z,99.77
2023-01-10T04:32:38.526Z,99.98
2023-01-10T04:35:07.094Z,99.94
2023-01-10T04:37:34.913Z,97.97
2023-01-10T04:40:02.868Z,97.46
2023-01-10T04:42:30.545Z,97.81
2023-01-10T04:44:58.470Z,99.18
2023-01-10T04:47:26.040Z,100.00
2023-01-10T04:49:53.815Z,100.00
2023-01-10T04:52:21.462Z,100.00
2023-01-10T04:54:49.260Z,100.00
2023-01-10T04:57:18.124Z,98.93
2023-01-10T04:59:46.083Z,99.08
2023-01-10T05:02:13.790Z,98.61
2023-01-10T05:04:41.835Z,98.65
2023-01-10T05:07:09.311Z,98.98
2023-01-10T05:09:37.170Z,98.56
2023-01-10T05:12:05.013Z,98.53
2023-01-10T05:14:33.027Z,96.68
2023-01-10T05:17:00.775Z,97.21
2023-01-10T05:19:28.788Z,96.30
2023-01-10T05:21:56.337Z,95.78
2023-01-10T05:24:24.240Z,95.66
2023-01-10T05:26:51.738Z,94.51
2023-01-10T05:29:19.506Z,95.20
2023-01-10T05:31:47.092Z,96.39
2023-01-10T05:34:14.930Z,95.49
2023-01-10T05:36:42.698Z,95.74
2023-01-10T05:39:10.533Z,93.36
2023-01-10T05:41:38.082Z,90.86
2023-01-10T05:44:05.973Z,91.81
2023-01-10T05:46:33.768Z,91.26
2023-01-10T05:49:01.633Z,90.85
2023-01-10T05:51:29.193Z,90.44
2023-01-10T05:53:58.638Z,90.99
2023-01-10T05:56:26.615Z,90.97
2023-01-10T05:59:05.288Z,91.44
2023-01-10T06:01:34.195Z,92.56
2023-01-10T06:04:02.191Z,93.55
2023-01-10T06:06:29.705Z,93.48
2023-01-10T06:08:59.095Z,94.21
2023-01-10T06:11:30.152Z,92.78
2023-01-10T06:13:58.630Z,93.60
2023-01-10T06:16:26.210Z,94.32
2023-01-10T06:18:54.412Z,94.92
2023-01-10T06:21:21.992Z,95.16
2023-01-10T06:23:49.883Z,94.79
2023-01-10T06:26:18.688Z,94.78
2023-01-10T06:28:46.564Z,94.47
2023-01-10T06:31:15.204Z,93.17
2023-01-10T06:33:44.127Z,93.74
2023-01-10T06:36:12.072Z,93.26
2023-01-10T06:38:40.048Z,90.73
2023-01-10T06:41:13.740Z,89.46
2023-01-10T06:43:46.959Z,90.92
2023-01-10T06:46:17.899Z,91.88
2023-01-10T06:48:46.996Z,92.14
2023-01-10T06:51:19.807Z,91.14
2023-01-10T06:53:48.289Z,91.24
2023-01-10T06:56:15.920Z,91.72
2023-01-10T06:59:01.966Z,93.04
2023-01-10T07:01:32.396Z,91.54
2023-01-10T07:04:00.410Z,92.79
2023-01-10T07:06:28.027Z,92.51
2023-01-10T07:08:56.686Z,93.24
2023-01-10T07:11:24.236Z,93.58
2023-01-10T07:13:54.046Z,92.59
2023-01-10T07:16:21.481Z,92.42
2023-01-10T07:18:49.331Z,93.02
2023-01-10T07:21:18.261Z,93.54
2023-01-10T07:23:50.674Z,93.33
2023-01-10T07:26:19.690Z,93.65
2023-01-10T07:29:34.058Z,93.97
2023-01-10T07:32:27.471Z,94.47
2023-01-10T07:34:56.047Z,94.05
2023-01-10T07:37:23.770Z,93.66
2023-01-10T07:39:52.471Z,93.58
2023-01-10T07:42:19.963Z,93.34
2023-01-10T07:44:49.498Z,92.85
2023-01-10T07:47:17.873Z,92.33
2023-01-10T07:49:45.728Z,92.79
2023-01-10T07:52:13.234Z,92.75
2023-01-10T07:54:41.036Z,92.87
2023-01-10T07:57:23.939Z,93.35
2023-01-10T07:59:53.249Z,93.08
2023-01-10T08:02:56.867Z,93.64
2023-01-10T08:05:26.287Z,92.87
2023-01-10T08:07:55.351Z,92.73
2023-01-10T08:10:23.279Z,92.67
2023-01-10T08:12:50.844Z,92.17
2023-01-10T08:15:18.743Z,91.69
2023-01-10T08:17:46.464Z,92.68
2023-01-10T08:20:14.577Z,93.20
2023-01-10T08:22:42.353Z,93.58
2023-01-10T08:25:11.027Z,93.05
2023-01-10T08:27:56.644Z,94.85
2023-01-10T08:30:29.393Z,94.03
2023-01-10T08:33:33.197Z,92.38
2023-01-10T08:36:29.012Z,93.38
2023-01-10T08:38:56.833Z,92.78
2023-01-10T08:41:24.760Z,93.10
2023-01-10T08:43:52.989Z,92.47
2023-01-10T08:46:21.145Z,93.33
2023-01-10T08:48:50.450Z,93.41
2023-01-10T08:51:18.761Z,91.27
2023-01-10T08:53:46.307Z,90.90
2023-01-10T08:56:14.459Z,90.03
2023-01-10T08:58:42.586Z,89.76
2023-01-10T09:01:13.055Z,89.95
2023-01-10T09:03:41.091Z,89.85
2023-01-10T09:06:09.546Z,88.70
2023-01-10T09:08:38.222Z,88.84
2023-01-10T09:11:06.584Z,89.17
2023-01-10T09:13:34.414Z,88.68
2023-01-10T09:16:02.344Z,88.29
2023-01-10T09:18:29.996Z,87.15
2023-01-10T09:20:57.986Z,88.60
2023-01-10T09:23:25.681Z,88.49
2023-01-10T09:25:57.921Z,88.98
2023-01-10T09:28:26.265Z,88.64
2023-01-10T09:30:54.204Z,88.65
2023-01-10T09:33:21.863Z,88.69
2023-01-10T09:35:49.870Z,86.77
2023-01-10T09:38:19.533Z,85.98
2023-01-10T09:41:31.991Z,86.18
2023-01-10T09:44:03.283Z,87.29
2023-01-10T09:47:21.990Z,86.78
2023-01-10T09:50:39.412Z,87.76
2023-01-10T09:53:21.907Z,89.32
2023-01-10T09:55:55.180Z,90.42
2023-01-10T09:58:31.215Z,91.16
2023-01-10T10:01:21.728Z,91.48
2023-01-10T10:04:14.924Z,91.80
2023-01-10T10:06:43.363Z,91.81
2023-01-10T10:09:31.387Z,92.03
2023-01-10T10:12:23.096Z,91.11
2023-01-10T10:15:21.334Z,91.37
2023-01-10T10:18:54.213Z,91.23
2023-01-10T10:21:59.068Z,90.36
2023-01-10T10:24:47.558Z,91.05
2023-01-10T10:27:24.147Z,90.89
2023-01-10T10:30:16.123Z,90.81
2023-01-10T10:33:01.678Z,91.83
2023-01-10T10:35:43.243Z,92.26
2023-01-10T10:38:25.449Z,93.41
2023-01-10T10:40:55.047Z,93.94
2023-01-10T10:43:33.256Z,93.75
2023-01-10T10:46:13.915Z,94.59
2023-01-10T10:48:57.632Z,93.90
2023-01-10T10:51:48.151Z,94.76
2023-01-10T10:54:16.626Z,95.31
2023-01-10T10:56:45.023Z,97.42
2023-01-10T10:59:19.308Z,98.30
2023-01-10T11:01:49.981Z,99.54
2023-01-10T11:04:23.491Z,98.94
2023-01-10T11:06:52.157Z,98.77
2023-01-10T11:09:27.209Z,99.69
2023-01-10T11:11:56.919Z,100.00
2023-01-10T11:14:49.292Z,100.00
2023-01-10T11:17:22.940Z,100.00
2023-01-10T11:20:04.552Z,100.00
2023-01-10T11:22:52.054Z,100.00
2023-01-10T11:25:23.023Z,100.00
2023-01-10T11:28:03.475Z,100.00
2023-01-10T11:30:33.721Z,100.00
2023-01-10T11:33:08.541Z,100.00
2023-01-10T11:35:42.242Z,100.00
2023-01-10T11:38:22.265Z,100.00
2023-01-10T11:41:02.618Z,100.00
2023-01-10T11:43:38.850Z,100.00
2023-01-10T11:46:17.464Z,99.33
2023-01-10T11:49:07.261Z,98.76
2023-01-10T11:51:47.477Z,97.98
2023-01-10T11:54:21.978Z,97.32
2023-01-10T11:57:28.192Z,96.98
2023-01-10T12:00:05.629Z,97.45
2023-01-10T12:02:45.025Z,97.21
2023-01-10T12:05:21.680Z,97.24
2023-01-10T12:08:06.388Z,96.15
2023-01-10T12:10:36.274Z,95.57
2023-01-10T12:13:17.356Z,94.90
2023-01-10T12:15:47.057Z,94.38
2023-01-10T12:18:18.524Z,94.57
2023-01-10T12:20:52.148Z,94.86
2023-01-10T12:23:24.699Z,93.14
2023-01-10T12:26:07.166Z,93.87
2023-01-10T12:28:53.190Z,94.39
2023-01-10T12:31:23.460Z,94.70
2023-01-10T12:33:59.702Z,93.82
2023-01-10T12:36:56.487Z,95.30
2023-01-10T12:39:35.127Z,93.78
2023-01-10T12:42:27.156Z,94.46
2023-01-10T12:45:21.259Z,94.94
2023-01-10T12:48:25.997Z,94.98
2023-01-10T12:51:08.045Z,95.61
2023-01-10T12:53:57.645Z,95.50
2023-01-10T12:56:26.115Z,95.00
2023-01-10T12:59:01.696Z,94.72
2023-01-10T13:01:40.654Z,94.68
2023-01-10T13:04:14.501Z,94.36
2023-01-10T13:06:44.846Z,93.56
2023-01-10T13:09:18.837Z,93.39
2023-01-10T13:12:01.189Z,94.59
2023-01-10T13:14:44.155Z,93.58
2023-01-10T13:17:32.323Z,94.02
2023-01-10T13:20:23.304Z,94.51
2023-01-10T13:22:57.426Z,94.98
2023-01-10T13:25:26.612Z,92.49
2023-01-10T13:28:06.010Z,91.96
2023-01-10T13:30:37.529Z,94.48
2023-01-10T13:33:20.900Z,95.83
2023-01-10T13:35:49.285Z,92.71
2023-01-10T13:38:51.646Z,92.64
2023-01-10T13:41:38.911Z,92.72
2023-01-10T13:44:12.773Z,93.15
2023-01-10T13:46:46.823Z,93.85
2023-01-10T13:49:14.455Z,93.99
2023-01-10T13:52:27.323Z,94.91
2023-01-10T13:55:03.670Z,96.01
2023-01-10T13:57:57.663Z,95.97
2023-01-10T14:01:12.131Z,96.23
2023-01-10T14:03:58.489Z,96.03
2023-01-10T14:06:29.522Z,96.54
2023-01-10T14:09:25.864Z,95.91
2023-01-10T14:12:01.836Z,96.40
2023-01-10T14:14:39.846Z,95.76
2023-01-10T14:17:19.295Z,96.28
2023-01-10T14:19:50.681Z,95.14
2023-01-10T14:22:35.245Z,95.93
2023-01-10T14:25:17.623Z,96.65
2023-01-10T14:27:52.996Z,96.64
2023-01-10T14:30:39.405Z,96.30
2023-01-10T14:33:22.171Z,95.92
2023-01-10T14:36:01.009Z,96.41
2023-01-10T14:38:37.617Z,95.64
2023-01-10T14:41:12.645Z,96.40
2023-01-10T14:43:49.735Z,95.83
2023-01-10T14:46:48.889Z,96.45
2023-01-10T14:49:37.351Z,95.67
2023-01-10T14:52:23.817Z,95.83
2023-01-10T14:55:18.248Z,95.86
2023-01-10T14:57:58.752Z,95.26
2023-01-10T15:00:26.672Z,94.44
2023-01-10T15:02:54.655Z,94.79
2023-01-10T15:05:28.611Z,96.24
2023-01-10T15:08:22.382Z,97.21
2023-01-10T15:10:55.867Z,96.45
2023-01-10T15:13:28.408Z,95.53
2023-01-10T15:15:57.075Z,96.42
2023-01-10T15:18:44.350Z,96.17
2023-01-10T15:21:14.452Z,94.98
2023-01-10T15:23:45.068Z,95.76
2023-01-10T15:26:18.559Z,96.32
2023-01-10T15:29:05.612Z,97.52
2023-01-10T15:31:38.403Z,96.60
2023-01-10T15:34:16.607Z,96.06
2023-01-10T15:36:49.992Z,95.11
2023-01-10T15:39:28.640Z,97.09
2023-01-10T15:42:09.874Z,97.45
2023-01-10T15:44:45.722Z,98.28
2023-01-10T15:47:41.605Z,97.83
2023-01-10T15:50:28.691Z,98.07
2023-01-10T15:53:01.281Z,98.21
2023-01-10T15:55:39.547Z,97.68
2023-01-10T15:58:28.560Z,98.82
2023-01-10T16:00:58.640Z,99.60
2023-01-10T16:03:45.360Z,100.00
2023-01-10T16:06:36.489Z,100.00
2023-01-10T16:09:17.671Z,100.00
2023-01-10T16:12:11.808Z,100.00
2023-01-10T16:14:39.742Z,100.00
2023-01-10T16:17:07.549Z,100.00
2023-01-10T16:19:35.462Z,100.00
2023-01-10T16:22:03.213Z,100.00
2023-01-10T16:24:35.162Z,100.00
2023-01-10T16:27:06.411Z,100.00
2023-01-10T16:29:34.816Z,100.00
2023-01-10T16:32:02.394Z,100.00
2023-01-10T16:34:33.986Z,100.00
2023-01-10T16:37:01.513Z,100.00
2023-01-10T16:39:29.463Z,100.00
2023-01-10T16:42:15.599Z,100.00
2023-01-10T16:44:44.344Z,100.00
2023-01-10T16:47:11.898Z,100.00
2023-01-10T16:49:41.790Z,100.00
2023-01-10T16:52:14.153Z,100.00
2023-01-10T16:54:42.550Z,100.00
2023-01-10T16:57:12.226Z,100.00
2023-01-10T16:59:40.666Z,100.00
2023-01-10T17:02:18.018Z,100.00
2023-01-10T17:04:46.193Z,100.00
2023-01-10T17:07:13.792Z,100.00
2023-01-10T17:09:41.710Z,100.00
2023-01-10T17:12:19.447Z,100.00
2023-01-10T17:14:48.330Z,100.00
2023-01-10T17:17:15.873Z,100.00
2023-01-10T17:19:44.728Z,100.00
2023-01-10T17:22:12.437Z,100.00
2023-01-10T17:24:40.571Z,100.00
2023-01-10T17:27:08.227Z,100.00
2023-01-10T17:29:36.141Z,100.00
2023-01-10T17:32:03.959Z,100.00
2023-01-10T17:34:37.281Z,100.00
2023-01-10T17:37:05.925Z,100.00
2023-01-10T17:39:34.710Z,100.00
2023-01-10T17:42:02.447Z,100.00
2023-01-10T17:44:30.403Z,100.00
2023-01-10T17:46:58.860Z,100.00
2023-01-10T17:49:27.571Z,100.00
2023-01-10T17:51:55.496Z,100.00
2023-01-10T17:54:23.493Z,100.00
2023-01-10T17:56:50.950Z,100.00
2023-01-10T17:59:19.411Z,100.00
2023-01-10T18:01:47.078Z,100.00
2023-01-10T18:04:14.995Z,100.00
2023-01-10T18:06:42.631Z,100.00
2023-01-10T18:09:11.817Z,100.00
2023-01-10T18:11:40.536Z,100.00
2023-01-10T18:14:27.009Z,100.00
2023-01-10T18:16:54.588Z,100.00
2023-01-10T18:19:22.770Z,100.00
2023-01-10T18:21:50.272Z,100.00
2023-01-10T18:24:18.214Z,100.00
2023-01-10T18:26:47.889Z,100.00
2023-01-10T18:29:15.748Z,100.00
2023-01-10T18:31:43.304Z,100.00
2023-01-10T18:34:11.205Z,100.00
2023-01-10T18:36:40.082Z,100.00
2023-01-10T18:39:07.991Z,100.00
2023-01-10T18:41:35.570Z,100.00
2023-01-10T18:44:03.541Z,100.00
2023-01-10T18:46:32.422Z,100.00
2023-01-10T18:49:01.577Z,100.00
2023-01-10T18:51:32.060Z,100.00
2023-01-10T18:54:00.146Z,100.00
2023-01-10T18:56:27.884Z,100.00
2023-01-10T18:58:58.720Z,100.00
2023-01-10T19:01:26.565Z,100.00
2023-01-10T19:03:54.520Z,100.00
2023-01-10T19:06:22.939Z,100.00
2023-01-10T19:08:51.944Z,100.00
2023-01-10T19:11:20.214Z,100.00
2023-01-10T19:13:52.132Z,100.00
2023-01-10T19:16:29.450Z,100.00
2023-01-10T19:19:03.862Z,100.00
2023-01-10T19:21:33.981Z,100.00
2023-01-10T19:24:24.292Z,100.00
2023-01-10T19:26:52.262Z,100.00
2023-01-10T19:29:20.322Z,100.00
2023-01-10T19:31:50.132Z,100.00
2023-01-10T19:34:18.578Z,100.00
2023-01-10T19:36:46.715Z,100.00
2023-01-10T19:39:15.151Z,100.00
2023-01-10T19:41:43.195Z,100.00
2023-01-10T19:44:16.925Z,100.00
2023-01-10T19:46:47.559Z,100.00
2023-01-10T19:49:19.707Z,100.00
2023-01-10T19:51:51.410Z,100.00
2023-01-10T19:54:19.989Z,100.00
2023-01-10T19:56:47.735Z,100.00
2023-01-10T19:59:17.795Z,100.00
2023-01-10T20:01:45.622Z,100.00
2023-01-10T20:04:14.086Z,100.00
2023-01-10T20:06:47.105Z,100.00
2023-01-10T20:09:19.444Z,100.00
2023-01-10T20:11:48.083Z,100.00
2023-01-10T20:14:19.286Z,100.00
2023-01-10T20:16:48.749Z,100.00
2023-01-10T20:19:17.501Z,100.00
2023-01-10T20:21:45.857Z,100.00
2023-01-10T20:24:20.280Z,100.00
2023-01-10T20:26:50.801Z,100.00
2023-01-10T20:29:22.455Z,100.00
2023-01-10T20:31:55.804Z,100.00
2023-01-10T20:34:24.741Z,100.00
2023-01-10T20:36:52.570Z,100.00
2023-01-10T20:39:22.494Z,100.00
2023-01-10T20:41:50.177Z,100.00
2023-01-10T20:44:18.334Z,100.00
2023-01-10T20:46:45.967Z,100.00
2023-01-10T20:49:14.463Z,100.00
2023-01-10T20:51:42.779Z,100.00
2023-01-10T20:54:12.124Z,100.00
2023-01-10T20:56:40.818Z,100.00
2023-01-10T20:59:08.926Z,100.00
2023-01-10T21:01:37.600Z,100.00
2023-01-10T21:04:07.020Z,100.00
2023-01-10T21:06:36.597Z,100.00
2023-01-10T21:09:13.255Z,100.00
2023-01-10T21:11:58.108Z,98.66
2023-01-10T21:14:33.359Z,98.83
2023-01-10T21:17:03.229Z,98.93
2023-01-10T21:19:31.293Z,99.99
2023-01-10T21:21:58.760Z,100.00
2023-01-10T21:24:27.683Z,100.00
2023-01-10T21:26:55.262Z,99.97
2023-01-10T21:30:08.346Z,100.00
2023-01-10T21:32:52.744Z,100.00
2023-01-10T21:35:24.614Z,100.00
2023-01-10T21:37:54.486Z,100.00
2023-01-10T21:40:22.954Z,100.00
2023-01-10T21:42:52.162Z,100.00
2023-01-10T21:45:22.807Z,100.00
2023-01-10T21:47:51.216Z,100.00
2023-01-10T21:50:22.327Z,100.00
2023-01-10T21:52:50.235Z,100.00
2023-01-10T21:55:18.293Z,100.00
2023-01-10T21:57:46.002Z,100.00
2023-01-10T22:00:14.607Z,100.00
2023-01-10T22:02:42.459Z,100.00
2023-01-10T22:05:11.412Z,100.00
2023-01-10T22:07:39.211Z,100.00
2023-01-10T22:10:09.400Z,100.00
2023-01-10T22:12:37.101Z,100.00
2023-01-10T22:15:05.937Z,100.00
2023-01-10T22:17:33.972Z,100.00
2023-01-10T22:20:01.872Z,100.00
2023-01-10T22:22:29.448Z,100.00
2023-01-10T22:24:57.402Z,100.00
2023-01-10T22:27:24.977Z,100.00
2023-01-10T22:29:52.794Z,100.00
2023-01-10T22:32:20.872Z,100.00
2023-01-10T22:34:48.978Z,100.00
2023-01-10T22:37:16.920Z,100.00
2023-01-10T22:39:46.480Z,100.00
2023-01-10T22:42:15.461Z,100.00
2023-01-10T22:44:43.284Z,100.00
2023-01-10T22:47:12.088Z,100.00
2023-01-10T22:49:39.927Z,100.00
2023-01-10T22:52:08.558Z,100.00
2023-01-10T22:54:36.908Z,100.00
2023-01-10T22:57:04.579Z,100.00
2023-01-10T22:59:34.753Z,100.00
2023-01-10T23:02:02.395Z,100.00
2023-01-10T23:04:30.216Z,100.00
2023-01-10T23:06:59.618Z,100.00
2023-01-10T23:09:27.587Z,100.00
2023-01-10T23:11:55.150Z,100.00
2023-01-10T23:14:22.980Z,100.00
2023-01-10T23:16:50.451Z,100.00
2023-01-10T23:19:18.349Z,100.00
2023-01-10T23:21:45.833Z,100.00
2023-01-10T23:24:15.824Z,100.00
2023-01-10T23:26:43.302Z,100.00
2023-01-10T23:29:11.066Z,100.00
2023-01-10T23:31:38.534Z,100.00
2023-01-10T23:34:06.378Z,100.00
2023-01-10T23:36:33.963Z,100.00
2023-01-10T23:39:01.848Z,100.00
2023-01-10T23:41:29.462Z,100.00
2023-01-10T23:43:57.420Z,100.00
2023-01-10T23:46:25.196Z,100.00
2023-01-10T23:48:53.008Z,100.00
2023-01-10T23:51:20.672Z,100.00
2023-01-10T23:53:48.607Z,100.00
2023-01-10T23:56:16.544Z,100.00
2023-01-10T23:58:44.954Z,100.00
